createdAt,value
2022-10-23T00:01:57.023Z,-28.2
2022-10-23T00:03:58.343Z,-28
2022-10-23T00:05:59.488Z,-28.3
2022-10-23T00:08:01.151Z,-27.8
2022-10-23T00:10:02.713Z,-28
2022-10-23T00:12:03.750Z,-28.1
2022-10-23T00:14:05.426Z,-28.3
2022-10-23T00:16:07.219Z,-28.3
2022-10-23T00:22:11.752Z,-28.2
2022-10-23T00:24:13.065Z,-28
2022-10-23T00:26:14.986Z,-27.9
2022-10-23T00:28:16.656Z,-28
2022-10-23T00:30:18.260Z,-28
2022-10-23T00:32:19.671Z,-27.8
2022-10-23T00:34:21.490Z,-28.2
2022-10-23T00:36:23.378Z,-28.3
2022-10-23T00:38:25.037Z,-28.1
2022-10-23T00:40:26.120Z,-28
2022-10-23T00:42:27.304Z,-28.2
2022-10-23T00:44:28.729Z,-27.9
2022-10-23T00:46:30.217Z,-28.1
2022-10-23T00:48:32.040Z,-28
2022-10-23T00:52:35.772Z,-28.1
2022-10-23T00:54:37.113Z,-28.2
2022-10-23T00:56:38.842Z,-28
2022-10-23T00:58:40.605Z,-28
2022-10-23T01:00:42.156Z,-28.2
2022-10-23T01:02:43.846Z,-28.3
2022-10-23T01:04:44.785Z,-28.1
2022-10-23T01:06:46.307Z,-28.2
2022-10-23T01:08:47.294Z,-28.1
2022-10-23T01:10:49.052Z,-28
2022-10-23T01:12:50.252Z,-28.1
2022-10-23T01:14:51.452Z,-28.2
2022-10-23T01:18:53.551Z,-27.9
2022-10-23T01:20:54.816Z,-28.3
2022-10-23T01:22:56.644Z,-28
2022-10-23T01:24:58.284Z,-28.2
2022-10-23T01:26:59.437Z,-28.2
2022-10-23T01:29:00.701Z,-28
2022-10-23T01:31:01.674Z,-27.9
2022-10-23T01:33:03.411Z,-28
2022-10-23T01:35:05.040Z,-27.9
2022-10-23T01:37:06.687Z,-28.2
2022-10-23T01:41:09.551Z,-28.2
2022-10-23T01:43:11.488Z,-28
2022-10-23T01:47:14.653Z,-28.2
2022-10-23T01:49:15.885Z,-28.1
2022-10-23T01:51:17.563Z,-27.8
2022-10-23T01:53:19.030Z,-28.2
2022-10-23T01:55:20.357Z,-28.2
2022-10-23T01:57:21.672Z,-27.7
2022-10-23T02:01:24.647Z,-28
2022-10-23T02:03:25.949Z,-28.2
2022-10-23T02:05:27.466Z,-27.9
2022-10-23T02:07:28.550Z,-28.3
2022-10-23T02:09:29.655Z,-27.9
2022-10-23T02:11:30.932Z,-28
2022-10-23T02:13:32.568Z,-27.9
2022-10-23T02:15:34.424Z,-28.4
2022-10-23T02:17:36.164Z,-28.3
2022-10-23T02:19:37.570Z,-28.3
2022-10-23T02:23:39.895Z,-28
2022-10-23T02:25:41.105Z,-27.9
2022-10-23T02:27:42.170Z,-28.1
2022-10-23T02:29:43.626Z,-28.1
2022-10-23T02:33:47.174Z,-28.4
2022-10-23T02:35:49.067Z,-28.2
2022-10-23T02:37:50.923Z,-28.3
2022-10-23T02:39:52.161Z,-28.3
2022-10-23T02:45:56.295Z,-28.2
2022-10-23T02:47:57.249Z,-27.9
2022-10-23T02:49:58.752Z,-28
2022-10-23T02:52:00.213Z,-28
2022-10-23T02:54:01.954Z,-28
2022-10-23T02:56:03.764Z,-28.2
2022-10-23T03:00:06.448Z,-28.1
2022-10-23T03:00:50.306Z,-28.2
2022-10-23T03:06:55.207Z,-28.2
2022-10-23T03:10:57.590Z,-28.2
2022-10-23T03:12:59.200Z,-28.2
2022-10-23T03:15:00.880Z,-28.2
2022-10-23T03:17:02.178Z,-27.8
2022-10-23T03:19:03.708Z,-28
2022-10-23T03:21:04.275Z,-28.3
2022-10-23T03:23:06.947Z,-28
2022-10-23T03:25:07.069Z,-28
2022-10-23T03:27:08.878Z,-28.3
2022-10-23T03:29:10.444Z,-28.3
2022-10-23T03:31:12.026Z,-28.2
2022-10-23T03:33:13.669Z,-28.2
2022-10-23T03:35:14.947Z,-28.2
2022-10-23T03:37:16.674Z,-28.3
2022-10-23T03:39:18.540Z,-28.4
2022-10-23T03:41:20.042Z,-28.4
2022-10-23T03:43:21.836Z,-28
2022-10-23T03:45:22.852Z,-27.9
2022-10-23T03:47:24.068Z,-28.2
2022-10-23T03:49:25.542Z,-28.2
2022-10-23T03:53:28.576Z,-28.3
2022-10-23T03:55:30.197Z,-27.9
2022-10-23T03:57:31.477Z,-28
2022-10-23T03:59:33.347Z,-28.1
2022-10-23T04:05:38.365Z,-28
2022-10-23T04:07:40.136Z,-27.9
2022-10-23T04:09:41.587Z,-27.9
2022-10-23T04:11:43.522Z,-28.2
2022-10-23T04:13:44.863Z,-27.9
2022-10-23T04:15:46.673Z,-28.4
2022-10-23T04:17:48.470Z,-28
2022-10-23T04:19:50.103Z,-28.2
2022-10-23T04:21:52.080Z,-28.4
2022-10-23T04:23:53.326Z,-27.8
2022-10-23T04:25:54.564Z,-28.4
2022-10-23T04:27:56.425Z,-28.2
2022-10-23T04:29:58.992Z,-28.2
2022-10-23T04:31:59.169Z,-28.2
2022-10-23T04:36:02.371Z,-28.3
2022-10-23T04:38:03.458Z,-28
2022-10-23T04:40:04.452Z,-28.4
2022-10-23T04:42:05.815Z,-28.1
2022-10-23T04:48:09.918Z,-28
2022-10-23T04:50:11.385Z,-28
2022-10-23T04:52:13.214Z,-28.1
2022-10-23T04:54:14.824Z,-27.9
2022-10-23T04:56:15.980Z,-27.9
2022-10-23T04:58:17.834Z,-28
2022-10-23T05:00:19.401Z,-28
2022-10-23T05:02:21.335Z,-28.2
2022-10-23T05:04:23.218Z,-28
2022-10-23T05:06:24.266Z,-28
2022-10-23T05:08:25.290Z,-28.3
2022-10-23T05:10:27.013Z,-28.2
2022-10-23T05:12:28.363Z,-27.9
2022-10-23T05:14:30.068Z,-28.5
2022-10-23T05:16:31.771Z,-28.1
2022-10-23T05:18:33.391Z,-28
2022-10-23T05:20:34.904Z,-28
2022-10-23T05:22:36.321Z,-28.3
2022-10-23T05:24:37.287Z,-28.2
2022-10-23T05:26:38.683Z,-28.2
2022-10-23T05:30:42.579Z,-28.3
2022-10-23T05:32:43.761Z,-28.2
2022-10-23T05:34:44.780Z,-27.9
2022-10-23T05:36:46.316Z,-28.1
2022-10-23T05:38:47.771Z,-28.3
2022-10-23T05:40:49.103Z,-28.1
2022-10-23T05:46:53.268Z,-27.9
2022-10-23T05:48:54.768Z,-27.9
2022-10-23T05:50:56.327Z,-27.9
2022-10-23T05:52:57.651Z,-28
2022-10-23T05:54:59.125Z,-28.1
2022-10-23T05:57:00.849Z,-28.4
2022-10-23T05:59:02.710Z,-28.3
2022-10-23T06:01:04.385Z,-28.2
2022-10-23T06:03:06.025Z,-28.1
2022-10-23T06:07:09.268Z,-28.1
2022-10-23T06:11:11.497Z,-28
2022-10-23T06:13:12.468Z,-28.2
2022-10-23T06:15:13.510Z,-28
2022-10-23T06:17:14.578Z,-28.1
2022-10-23T06:19:16.014Z,-28.2
2022-10-23T06:21:17.991Z,-28.2
2022-10-23T06:23:19.840Z,-27.8
2022-10-23T06:25:20.819Z,-28.2
2022-10-23T06:27:22.370Z,-28.2
2022-10-23T06:29:23.888Z,-28.1
2022-10-23T06:31:25.667Z,-27.8
2022-10-23T06:33:26.823Z,-27.9
2022-10-23T06:35:28.019Z,-28
2022-10-23T06:37:28.974Z,-28.2
2022-10-23T06:39:31.916Z,-27.9
2022-10-23T06:41:32.144Z,-28.4
2022-10-23T06:43:33.211Z,-27.2
2022-10-23T06:45:35.106Z,-26
2022-10-23T06:47:36.409Z,-21.9
2022-10-23T06:49:37.703Z,-22.1
2022-10-23T06:51:38.814Z,2.4
2022-10-23T06:53:40.734Z,12.9
2022-10-23T06:55:41.920Z,-3
2022-10-23T06:57:43.551Z,-7.4
2022-10-23T06:59:44.643Z,-4.19
2022-10-23T07:01:46.088Z,-15.2
2022-10-23T07:03:47.072Z,-24.1
2022-10-23T07:05:48.236Z,-20.9
2022-10-23T07:07:50.005Z,-11.1
2022-10-23T07:11:53.052Z,-11.5
2022-10-23T07:13:54.960Z,-22.4
2022-10-23T07:15:56.529Z,-19.9
2022-10-23T07:17:57.635Z,-19
2022-10-23T07:19:58.710Z,2
2022-10-23T07:22:00.422Z,2
2022-10-23T07:26:03.218Z,1.8
2022-10-23T07:28:04.778Z,4.6
2022-10-23T07:30:06.490Z,3.5
2022-10-23T07:32:08.341Z,0.9
2022-10-23T07:34:09.975Z,7.5
2022-10-23T07:36:10.893Z,30.5
2022-10-23T07:38:12.854Z,27
2022-10-23T07:40:14.216Z,6.5
2022-10-23T07:42:15.624Z,18.79
2022-10-23T07:44:16.909Z,44.5
2022-10-23T07:48:19.948Z,82.2
2022-10-23T07:50:21.045Z,82.1
2022-10-23T07:52:22.560Z,81.3
2022-10-23T07:54:24.450Z,81.1
2022-10-23T07:56:25.908Z,80.3
2022-10-23T07:58:27.753Z,80.1
2022-10-23T08:00:29.514Z,79.69
2022-10-23T08:02:30.861Z,79.4
2022-10-23T08:04:32.229Z,78.9
2022-10-23T08:10:35.789Z,76.9
2022-10-23T08:12:37.428Z,76.69
2022-10-23T08:14:38.734Z,76.3
2022-10-23T08:18:41.429Z,74
2022-10-23T08:20:43.134Z,73.6
2022-10-23T08:24:45.909Z,-9.2
2022-10-23T08:26:46.905Z,-10.9
2022-10-23T08:28:47.805Z,-10.1
2022-10-23T08:30:49.686Z,-3.8
2022-10-23T08:32:51.379Z,13.9
2022-10-23T08:34:52.662Z,73.69
2022-10-23T08:36:53.797Z,72.8
2022-10-23T08:38:55.312Z,72.19
2022-10-23T08:40:56.341Z,71.19
2022-10-23T08:42:57.710Z,70.8
2022-10-23T08:44:59.234Z,69.9
2022-10-23T08:47:00.814Z,69.3
2022-10-23T08:49:02.294Z,68.8
2022-10-23T08:51:03.489Z,68.19
2022-10-23T08:53:05.011Z,67.5
2022-10-23T08:55:05.983Z,66.69
2022-10-23T08:57:07.269Z,65.9
2022-10-23T08:59:08.303Z,65.19
2022-10-23T09:01:09.225Z,64.8
2022-10-23T09:03:10.350Z,63.8
2022-10-23T09:05:11.331Z,63.4
2022-10-23T09:07:12.275Z,62.5
2022-10-23T09:09:14.127Z,61.6
2022-10-23T09:11:15.481Z,60.2
2022-10-23T09:13:16.788Z,59.2
2022-10-23T09:15:17.955Z,58.2
2022-10-23T09:17:18.778Z,52.5
2022-10-23T09:19:20.052Z,51.9
2022-10-23T09:21:20.986Z,50.3
2022-10-23T09:23:22.694Z,48.7
2022-10-23T09:25:23.835Z,48.1
2022-10-23T09:27:25.212Z,45.3
2022-10-23T09:29:26.562Z,44.6
2022-10-23T09:31:27.766Z,42.2
2022-10-23T09:33:28.733Z,40.59
2022-10-23T09:35:29.723Z,38.9
2022-10-23T09:37:31.067Z,38.2
2022-10-23T09:39:31.950Z,35.3
2022-10-23T09:41:32.993Z,34.8
2022-10-23T09:43:34.824Z,33.2
2022-10-23T09:46:19.947Z,30.7
2022-10-23T09:48:21.152Z,29.5
2022-10-23T09:50:22.035Z,27.9
2022-10-23T09:54:24.524Z,24.3
2022-10-23T09:56:25.618Z,22.5
2022-10-23T09:58:27.277Z,21.8
2022-10-23T10:00:28.468Z,19.6
2022-10-23T10:02:30.249Z,20.1
2022-10-23T10:04:31.843Z,17.29
2022-10-23T10:06:33.422Z,16.79
2022-10-23T10:12:37.503Z,14.2
2022-10-23T10:14:38.680Z,13.6
2022-10-23T10:18:40.809Z,12.6
2022-10-23T10:20:42.153Z,12.2
2022-10-23T10:22:43.380Z,11.5
2022-10-23T10:28:48.083Z,10.3
2022-10-23T10:30:49.029Z,10
2022-10-23T10:32:51.065Z,8.3
2022-10-23T10:34:52.222Z,9
2022-10-23T10:36:53.780Z,-28
2022-10-23T10:38:55.356Z,-28
2022-10-23T10:40:56.809Z,-27.8
2022-10-23T10:42:58.528Z,-28.1
2022-10-23T10:45:00.271Z,-28
2022-10-23T10:47:01.597Z,-27.7
2022-10-23T10:49:02.489Z,-28.2
2022-10-23T10:51:04.086Z,-28
2022-10-23T10:55:06.858Z,-27.9
2022-10-23T10:57:07.735Z,-28.3
2022-10-23T10:59:08.686Z,-28.1
2022-10-23T11:01:10.066Z,-28
2022-10-23T11:03:11.748Z,-28.2
2022-10-23T11:05:13.714Z,-28
2022-10-23T11:11:17.761Z,-28.1
2022-10-23T11:13:18.677Z,-28.1
2022-10-23T11:15:19.991Z,-28.2
2022-10-23T11:17:21.839Z,-27.9
2022-10-23T11:19:23.317Z,-27.9
2022-10-23T11:21:24.492Z,-28.2
2022-10-23T11:23:25.512Z,-28.2
2022-10-23T11:25:26.358Z,-27.9
2022-10-23T11:27:27.350Z,-28.2
2022-10-23T11:29:28.924Z,-27.9
2022-10-23T11:31:30.314Z,-27.9
2022-10-23T11:33:32.010Z,-28
2022-10-23T11:35:32.798Z,-27.9
2022-10-23T11:37:34.099Z,-27.9
2022-10-23T11:39:34.999Z,-28.2
2022-10-23T11:41:36.709Z,-28
2022-10-23T11:43:37.520Z,-28
2022-10-23T11:47:40.472Z,-28.2
2022-10-23T11:49:41.047Z,-27.9
2022-10-23T11:51:42.471Z,-28.3
2022-10-23T11:53:43.871Z,-28.3
2022-10-23T11:57:46.081Z,-28
2022-10-23T11:59:47.672Z,-28
2022-10-23T12:01:48.964Z,-28
2022-10-23T12:03:50.320Z,-28.2
2022-10-23T12:05:51.988Z,-28
2022-10-23T12:07:53.419Z,-28.3
2022-10-23T12:09:54.305Z,-28
2022-10-23T12:11:55.340Z,-28.2
2022-10-23T12:13:56.685Z,-28.2
2022-10-23T12:15:58.618Z,-28
2022-10-23T12:17:58.846Z,-27.9
2022-10-23T12:20:00.542Z,-28
2022-10-23T12:22:02.109Z,-27.9
2022-10-23T12:24:03.422Z,-27.9
2022-10-23T12:26:04.973Z,-27.9
2022-10-23T12:28:06.731Z,-28.4
2022-10-23T12:30:08.021Z,-28
2022-10-23T12:32:09.034Z,-27.9
2022-10-23T12:36:12.311Z,-28.2
2022-10-23T12:38:13.829Z,-28.2
2022-10-23T12:40:15.284Z,-28
2022-10-23T12:42:17.073Z,-28.2
2022-10-23T12:44:18.510Z,-28.1
2022-10-23T12:46:19.794Z,-28.2
2022-10-23T12:48:20.940Z,-28
2022-10-23T12:50:22.312Z,-28.4
2022-10-23T12:52:23.192Z,-28.2
2022-10-23T12:54:24.054Z,-28.3
2022-10-23T12:56:25.460Z,-28.2
2022-10-23T12:58:26.674Z,-28.4
2022-10-23T13:00:27.806Z,-28.5
2022-10-23T13:02:28.937Z,-28.3
2022-10-23T13:04:29.826Z,-28.3
2022-10-23T13:06:31.206Z,-28
2022-10-23T13:08:32.516Z,-28.3
2022-10-23T13:10:34.185Z,-28.3
2022-10-23T13:12:35.060Z,-28
2022-10-23T13:14:37.285Z,-28.2
2022-10-23T13:16:37.255Z,-28.3
2022-10-23T13:18:38.751Z,-28.2
2022-10-23T13:20:40.062Z,-28.2
2022-10-23T13:22:41.402Z,-28
2022-10-23T13:24:42.517Z,-28
2022-10-23T13:28:44.491Z,-28.2
2022-10-23T13:32:46.548Z,-28.2
2022-10-23T13:34:50.166Z,-28.4
2022-10-23T13:36:52.509Z,-28.2
2022-10-23T13:38:50.352Z,-28.3
2022-10-23T13:40:51.252Z,-28.3
2022-10-23T13:42:52.777Z,-28.4
2022-10-23T13:44:54.534Z,-28.3
2022-10-23T13:48:57.387Z,-28.6
2022-10-23T13:50:58.392Z,-28.3
2022-10-23T13:52:59.601Z,-28.4
2022-10-23T13:55:00.957Z,-28.1
2022-10-23T13:59:03.968Z,-28.3
2022-10-23T14:01:05.683Z,-28.2
2022-10-23T14:05:08.403Z,-28.5
2022-10-23T14:07:09.700Z,-28.6
2022-10-23T14:09:11.653Z,-28.5
2022-10-23T14:13:14.341Z,-28.4
2022-10-23T14:17:17.153Z,-28.7
2022-10-23T14:21:19.483Z,-28.4
2022-10-23T14:23:20.692Z,-28.4
2022-10-23T14:25:22.359Z,-28.3
2022-10-23T14:27:23.369Z,-28.2
2022-10-23T14:29:24.834Z,-28.4
2022-10-23T14:31:26.182Z,-28.9
2022-10-23T14:33:27.643Z,-28.3
2022-10-23T14:37:29.959Z,-28.4
2022-10-23T14:39:31.697Z,-28.4
2022-10-23T14:41:33.151Z,-28.3
2022-10-23T14:43:34.762Z,-28.3
2022-10-23T14:45:36.064Z,-28.5
2022-10-23T14:49:38.281Z,-28.5
2022-10-23T14:53:41.213Z,-28.6
2022-10-23T14:55:42.675Z,-28.3
2022-10-23T14:57:44.104Z,-28.4
2022-10-23T14:59:54.074Z,-22.7
2022-10-23T15:03:47.673Z,-22
2022-10-23T15:05:49.041Z,-28.6
2022-10-23T15:07:50.316Z,-28.6
2022-10-23T15:09:52.182Z,-28.6
2022-10-23T15:11:53.071Z,-28.5
2022-10-23T15:13:54.841Z,-28.3
2022-10-23T15:15:56.066Z,-28.7
2022-10-23T15:17:57.239Z,-28.9
2022-10-23T15:19:58.541Z,-28.7
2022-10-23T15:22:00.230Z,-28.7
2022-10-23T15:24:01.454Z,-28.7
2022-10-23T15:26:02.963Z,-28.5
2022-10-23T15:28:04.428Z,-28.7
2022-10-23T15:30:05.593Z,-28.4
2022-10-23T15:32:06.581Z,-28.6
2022-10-23T15:34:07.758Z,-28
2022-10-23T15:36:09.141Z,-28.6
2022-10-23T15:38:10.694Z,-28.5
2022-10-23T15:40:12.216Z,-28.6
2022-10-23T15:42:13.265Z,-28.6
2022-10-23T15:44:14.226Z,-28.5
2022-10-23T15:46:15.463Z,-28.4
2022-10-23T15:48:16.723Z,-28.3
2022-10-23T15:50:17.757Z,-28.2
2022-10-23T15:52:18.962Z,-28.3
2022-10-23T15:54:19.835Z,-28.4
2022-10-23T15:56:20.906Z,-28.3
2022-10-23T15:58:21.821Z,-28.2
2022-10-23T16:02:25.106Z,-28.4
2022-10-23T16:04:26.315Z,-28.3
2022-10-23T16:06:27.662Z,-28.2
2022-10-23T16:08:29.308Z,-28.5
2022-10-23T16:10:30.575Z,-27.9
2022-10-23T16:12:31.757Z,-28.5
2022-10-23T16:14:32.799Z,-28.3
2022-10-23T16:18:35.577Z,-28.1
2022-10-23T16:20:36.604Z,-28.4
2022-10-23T16:22:40.184Z,-28.3
2022-10-23T16:24:39.485Z,-28.3
2022-10-23T16:26:40.441Z,-28.3
2022-10-23T16:28:41.319Z,-28.3
2022-10-23T16:30:43.097Z,-28.2
2022-10-23T16:31:26.816Z,-28.6
2022-10-23T16:35:29.211Z,-27.8
2022-10-23T16:41:33.112Z,-28.3
2022-10-23T16:43:34.245Z,-28.1
2022-10-23T16:45:37.691Z,-28.4
2022-10-23T16:47:37.517Z,-28.2
2022-10-23T16:49:39.318Z,-28.4
2022-10-23T16:51:40.320Z,-28.1
2022-10-23T16:55:42.692Z,-28.2
2022-10-23T16:57:43.790Z,-28.2
2022-10-23T16:59:44.661Z,-28.3
2022-10-23T17:01:46.155Z,-27.9
2022-10-23T17:03:47.307Z,-28.4
2022-10-23T17:05:48.715Z,-28.3
2022-10-23T17:07:50.129Z,-28.2
2022-10-23T17:09:51.274Z,-28
2022-10-23T17:11:52.496Z,-28
2022-10-23T17:13:57.129Z,-28.1
2022-10-23T17:17:56.552Z,-28.2
2022-10-23T17:21:59.074Z,-28.3
2022-10-23T17:24:00.122Z,-28
2022-10-23T17:28:03.443Z,-28.4
2022-10-23T17:30:06.268Z,-28.3
2022-10-23T17:32:06.454Z,-28.1
2022-10-23T17:34:07.460Z,-28.2
2022-10-23T17:38:10.469Z,-27.9
2022-10-23T17:40:11.775Z,-28
2022-10-23T17:42:12.653Z,-27.8
2022-10-23T17:44:13.622Z,-28
2022-10-23T17:46:15.014Z,-28.4
2022-10-23T17:48:16.269Z,-28.2
2022-10-23T17:50:17.932Z,-28.3
2022-10-23T17:52:19.435Z,-28.2
2022-10-23T17:54:20.381Z,-28.1
2022-10-23T17:56:21.971Z,-27.9
2022-10-23T17:58:22.912Z,-28.2
2022-10-23T18:00:23.901Z,-28.5
2022-10-23T18:02:25.697Z,-28.2
2022-10-23T18:04:26.478Z,-28.2
2022-10-23T18:06:29.531Z,-28.1
2022-10-23T18:08:29.205Z,-28.4
2022-10-23T18:10:31.042Z,-28
2022-10-23T18:12:32.343Z,-28.2
2022-10-23T18:14:37.153Z,-28.4
2022-10-23T18:16:35.783Z,-28.3
2022-10-23T18:18:36.676Z,-28
2022-10-23T18:22:39.417Z,-28
2022-10-23T18:24:40.509Z,-28
2022-10-23T18:26:41.471Z,-28
2022-10-23T18:28:42.279Z,-28.3
2022-10-23T18:30:43.343Z,-28.1
2022-10-23T18:32:45.294Z,-28.2
2022-10-23T18:36:48.281Z,-28.3
2022-10-23T18:38:49.980Z,-28.2
2022-10-23T18:40:50.955Z,-28.1
2022-10-23T18:42:52.463Z,-28.2
2022-10-23T18:44:54.205Z,-27.9
2022-10-23T18:46:55.032Z,-28
2022-10-23T18:48:56.390Z,-28.4
2022-10-23T18:50:57.289Z,-28
2022-10-23T18:52:58.970Z,-28
2022-10-23T18:55:00.340Z,-28
2022-10-23T18:59:03.891Z,-28.3
2022-10-23T19:01:05.644Z,-28.3
2022-10-23T19:03:06.734Z,-27.9
2022-10-23T19:05:08.337Z,-28.1
2022-10-23T19:07:09.801Z,-28.3
2022-10-23T19:09:10.761Z,-28.2
2022-10-23T19:11:12.120Z,-27.9
2022-10-23T19:13:13.384Z,-28.2
2022-10-23T19:15:15.149Z,-28.2
2022-10-23T19:21:19.826Z,-28.2
2022-10-23T19:23:20.779Z,-28.1
2022-10-23T19:25:22.569Z,-28
2022-10-23T19:27:24.159Z,-28
2022-10-23T19:29:25.243Z,-28.3
2022-10-23T19:31:26.314Z,-28.4
2022-10-23T19:33:27.764Z,-28.2
2022-10-23T19:35:28.660Z,-28.3
2022-10-23T19:37:30.095Z,-28.1
2022-10-23T19:39:31.209Z,-28
2022-10-23T19:41:32.863Z,-28.2
2022-10-23T19:43:34.357Z,-28.1
2022-10-23T19:47:37.463Z,-28
2022-10-23T19:51:39.790Z,-28.1
2022-10-23T19:53:41.031Z,-28.3
2022-10-23T19:55:42.365Z,-28.2
2022-10-23T19:57:43.784Z,-28.2
2022-10-23T20:01:47.782Z,-28.3
2022-10-23T20:03:47.647Z,-28.2
2022-10-23T20:05:48.837Z,-28.2
2022-10-23T20:07:50.057Z,-28.3
2022-10-23T20:09:50.917Z,-28
2022-10-23T20:11:52.346Z,-28.1
2022-10-23T20:13:53.438Z,-28.4
2022-10-23T20:15:54.577Z,-28.4
2022-10-23T20:17:55.838Z,-28.1
2022-10-23T20:19:56.990Z,-28.2
2022-10-23T20:21:58.109Z,-28.3
2022-10-23T20:23:59.918Z,-28.2
2022-10-23T20:26:01.294Z,-28
2022-10-23T20:28:02.595Z,-28.4
2022-10-23T20:30:03.825Z,-28.3
2022-10-23T20:32:05.567Z,-28.2
2022-10-23T20:34:06.565Z,-27.9
2022-10-23T20:36:07.503Z,-28.2
2022-10-23T20:38:09.092Z,-28.2
2022-10-23T20:40:10.727Z,-28.2
2022-10-23T20:42:12.474Z,-28.2
2022-10-23T20:44:13.458Z,-28
2022-10-23T20:46:14.295Z,-28.2
2022-10-23T20:48:15.461Z,-28.2
2022-10-23T20:50:16.857Z,-28.3
2022-10-23T20:52:18.716Z,-28.2
2022-10-23T20:54:20.598Z,-28.3
2022-10-23T20:56:22.046Z,-27.9
2022-10-23T21:02:26.197Z,-27.9
2022-10-23T21:04:27.401Z,-28.2
2022-10-23T21:06:31.564Z,-28.3
2022-10-23T21:08:30.178Z,-27.9
2022-10-23T21:10:31.130Z,-28
2022-10-23T21:12:32.036Z,-28.3
2022-10-23T21:14:33.777Z,-27.9
2022-10-23T21:16:34.953Z,-28
2022-10-23T21:18:45.280Z,-28
2022-10-23T21:20:37.413Z,-28.2
2022-10-23T21:22:39.247Z,-28.2
2022-10-23T21:26:42.103Z,-28
2022-10-23T21:28:47.251Z,-28.1
2022-10-23T21:30:44.819Z,-28.2
2022-10-23T21:32:46.251Z,-28
2022-10-23T21:34:47.122Z,-28.2
2022-10-23T21:37:11.174Z,-28
2022-10-23T21:38:49.841Z,-28.2
2022-10-23T21:42:52.399Z,-28.5
2022-10-23T21:44:53.336Z,-28.3
2022-10-23T21:46:54.865Z,-28.3
2022-10-23T21:48:56.343Z,-27.9
2022-10-23T21:50:58.186Z,-27.8
2022-10-23T21:52:59.321Z,-28.1
2022-10-23T21:55:00.937Z,-28.2
2022-10-23T21:57:02.436Z,-28
2022-10-23T21:59:04.080Z,-27.9
2022-10-23T22:01:05.030Z,-28
2022-10-23T22:03:14.271Z,-28.3
2022-10-23T22:05:07.406Z,-28.2
2022-10-23T22:07:08.367Z,-28
2022-10-23T22:09:10.073Z,-28
2022-10-23T22:11:11.776Z,-28
2022-10-23T22:15:15.010Z,-28.1
2022-10-23T22:17:16.348Z,-28
2022-10-23T22:19:17.881Z,-28
2022-10-23T22:21:19.503Z,-28.3
2022-10-23T22:27:23.047Z,-28
2022-10-23T22:29:24.060Z,-27.9
2022-10-23T22:31:25.457Z,-28.2
2022-10-23T22:33:26.820Z,-28.1
2022-10-23T22:35:27.361Z,-28.3
2022-10-23T22:37:29.129Z,-28.2
2022-10-23T22:39:30.822Z,-28.2
2022-10-23T22:41:32.482Z,-28.4
2022-10-23T22:43:34.129Z,-28.3
2022-10-23T22:45:35.170Z,-28.1
2022-10-23T22:47:36.922Z,-28.5
2022-10-23T22:49:37.966Z,-28.3
2022-10-23T22:51:38.880Z,-27.8
2022-10-23T22:53:40.011Z,-28.3
2022-10-23T22:55:41.817Z,-28.3
2022-10-23T22:57:43.458Z,-28
2022-10-23T22:59:44.848Z,-27.9
2022-10-23T23:03:47.791Z,-28.4
2022-10-23T23:05:49.595Z,-28.3
2022-10-23T23:07:51.201Z,-28
2022-10-23T23:09:52.353Z,-28.3
2022-10-23T23:11:53.361Z,-28.3
2022-10-23T23:13:54.864Z,-27.9
2022-10-23T23:15:56.216Z,-28.2
2022-10-23T23:17:58.037Z,-27.9
2022-10-23T23:20:42.886Z,-28.3
2022-10-23T23:22:44.326Z,-28
2022-10-23T23:24:45.528Z,-28.4
2022-10-23T23:28:48.044Z,-28.3
2022-10-23T23:30:49.398Z,-28.4
2022-10-23T23:34:52.451Z,-28
2022-10-23T23:36:53.822Z,-28
2022-10-23T23:38:55.011Z,-28.4
2022-10-23T23:40:56.754Z,-28.3
2022-10-23T23:47:01.058Z,-28.2
2022-10-23T23:49:02.369Z,-28.3
2022-10-23T23:51:04.003Z,-28
2022-10-23T23:53:05.262Z,-28.2
2022-10-23T23:55:06.623Z,-28.3
2022-10-23T23:57:07.958Z,-28.3
